Sophia, WV (25921)

6:03 AM EST on February 11, 2016 (GMT -0500)
Fairdale | | Change Station
CLOSE
Current Station
Personal Weather Station
Location: Lester, WV
Elevation: 1938 ft
Nearby Weather Stations

Elev 1938 ft 37.74 °N, 81.35 °W | Updated 7 seconds ago

Overcast
Overcast
12.9 °F
Feels Like 13 °F
N
0.0
Wind Variable Wind from SSW
Gusts 2.5 mph

Today
High -- | Low -- °F
--% Chance of Precip.
Yesterday
High -- | Low -- °F
Precip. -- in
Pressure 30.18 in
Visibility 5.0 miles
Clouds Few 1500 ft
Scattered Clouds 2100 ft
Overcast 3000 ft
Windchill 13 °F
Dew Point -4 °F
Humidity 46%
Rainfall 0.00 in
Snow Depth Not available.
7:19 AM 5:59 PM
Waxing Crescent, 11% visible
METAR KBKW 111051Z AUTO 29007KT 5SM -SN FEW015 SCT021 OVC030 M12/M16 A3001 RMK AO2 SLP220 P0000 T11221156
Pressure 30.18 in
Visibility 5.0 miles
Clouds Few 1500 ft
Scattered Clouds 2100 ft
Overcast 3000 ft
Windchill 13 °F
Dew Point -4 °F
Humidity 46%
Rainfall 0.00 in
Snow Depth Not available.
7:19 AM 5:59 PM
Waxing Crescent, 11% visible
METAR KBKW 111051Z AUTO 29007KT 5SM -SN FEW015 SCT021 OVC030 M12/M16 A3001 RMK AO2 SLP220 P0000 T11221156

10-Day Weather Forecast

Almanac

Astronomy

Feb. 11, 2016 Rise Set
Actual Time
Civil Twilight
Nautical Twilight
Astronomical Twilight
Moon
Length of Visible Light
Length of Day
Tomorrow will be .
, % of the Moon is Illuminated

Today's Extremes

State Highs State Lows

Community

WunderPhotos

Upload Photos

1,892,030 photos uploaded!

WunderBlog® & News

Nearby

Air Quality

  Air Quality AQ Index Pollutant
Not available.

Snow Depth

Station Depth Elevation

Earthquake Activity

City Distance Mag. Time & Date
Minimum magnitude displayed is 2.5.

Coastal Water Temperatures

Place Temperature

Stations

Nearby Weather Stations

Station Location Temp. Windchill Dew Point Humidity Wind Precip. Elev Updated Type
                   

Watches & Warnings

There are currently no watches in effect.